createdAt,value
2017-05-20T00:01:27.570Z,14.77
2017-05-20T00:03:56.534Z,16.68
2017-05-20T00:06:25.477Z,15.88
2017-05-20T00:08:54.495Z,14.30
2017-05-20T00:11:23.469Z,12.58
2017-05-20T00:13:52.403Z,13.23
2017-05-20T00:16:21.357Z,12.45
2017-05-20T00:18:50.465Z,12.32
2017-05-20T00:21:19.419Z,12.20
2017-05-20T00:23:48.349Z,13.13
2017-05-20T00:26:17.302Z,12.95
2017-05-20T00:28:46.250Z,11.78
2017-05-20T00:31:15.179Z,11.92
2017-05-20T00:33:44.149Z,11.92
2017-05-20T00:36:13.077Z,11.05
2017-05-20T00:38:42.029Z,12.20
2017-05-20T00:41:11.010Z,12.88
2017-05-20T00:43:39.930Z,14.12
2017-05-20T00:46:08.882Z,14.27
2017-05-20T00:48:37.837Z,13.68
2017-05-20T00:51:06.789Z,14.52
2017-05-20T00:53:35.733Z,15.43
2017-05-20T00:56:04.701Z,15.70
2017-05-20T00:58:33.626Z,15.75
2017-05-20T01:01:02.562Z,16.63
2017-05-20T01:03:31.532Z,15.72
2017-05-20T01:06:00.480Z,15.07
2017-05-20T01:08:29.425Z,15.47
2017-05-20T01:10:58.379Z,14.20
2017-05-20T01:13:27.300Z,13.22
2017-05-20T01:15:56.247Z,11.88
2017-05-20T01:18:25.231Z,12.30
2017-05-20T01:20:54.162Z,11.18
2017-05-20T01:23:23.110Z,13.10
2017-05-20T01:25:52.082Z,10.97
2017-05-20T01:28:21.027Z,12.25
2017-05-20T01:30:49.960Z,11.90
2017-05-20T01:33:18.910Z,12.32
2017-05-20T01:35:47.831Z,12.00
2017-05-20T01:38:16.759Z,13.62
2017-05-20T01:40:45.741Z,12.67
2017-05-20T01:43:14.684Z,13.30
2017-05-20T01:45:43.606Z,13.53
2017-05-20T01:48:12.569Z,14.35
2017-05-20T01:50:41.513Z,13.85
2017-05-20T01:53:10.460Z,13.08
2017-05-20T01:55:39.422Z,13.68
2017-05-20T01:58:08.365Z,13.88
2017-05-20T02:00:37.297Z,13.08
2017-05-20T02:03:06.245Z,14.38
2017-05-20T02:05:35.189Z,14.52
2017-05-20T02:08:04.113Z,13.73
2017-05-20T02:10:33.092Z,14.35
2017-05-20T02:13:02.039Z,15.07
2017-05-20T02:15:30.966Z,14.65
2017-05-20T02:17:59.933Z,14.18
2017-05-20T02:20:28.863Z,15.12
2017-05-20T02:22:57.803Z,14.92
2017-05-20T02:25:26.763Z,15.57
2017-05-20T02:42:46.546Z,19.22
2017-05-20T02:45:15.470Z,19.53
2017-05-20T02:47:44.421Z,20.35
2017-05-20T02:50:13.346Z,18.62
2017-05-20T02:52:42.358Z,20.18
2017-05-20T02:55:11.305Z,21.55
2017-05-20T02:57:40.258Z,20.47
2017-05-20T03:00:09.185Z,22.32
2017-05-20T03:02:38.138Z,21.95
2017-05-20T03:05:07.089Z,21.33
2017-05-20T03:07:36.011Z,21.12
2017-05-20T04:24:19.620Z,28.13
2017-05-20T04:29:17.014Z,28.52
2017-05-20T04:31:45.995Z,29.12
2017-05-20T04:36:43.445Z,29.18
2017-05-20T04:39:12.396Z,30.85
2017-05-20T04:41:41.348Z,31.25
2017-05-20T04:54:04.236Z,30.70
2017-05-20T04:59:01.641Z,32.25
2017-05-20T05:01:30.595Z,31.87
2017-05-20T05:03:59.522Z,33.67
2017-05-20T05:06:28.470Z,31.62
2017-05-20T05:08:57.441Z,31.67
2017-05-20T05:11:26.377Z,32.32
2017-05-20T05:13:55.302Z,34.10
2017-05-20T05:16:24.258Z,36.45
2017-05-20T05:18:53.201Z,32.90
2017-05-20T05:21:22.145Z,36.03
2017-05-20T05:23:51.101Z,34.25
2017-05-20T05:26:20.048Z,35.80
2017-05-20T05:28:48.988Z,36.33
2017-05-20T05:31:17.956Z,36.68
2017-05-20T05:33:46.907Z,36.88
2017-05-20T05:36:15.835Z,35.62
2017-05-20T05:38:44.808Z,37.72
2017-05-20T05:41:13.739Z,37.93
2017-05-20T05:43:42.670Z,37.08
2017-05-20T05:46:11.622Z,36.40
2017-05-20T05:48:40.571Z,38.97
2017-05-20T05:51:09.494Z,38.85
2017-05-20T05:53:38.475Z,38.58
2017-05-20T05:56:07.424Z,39.73
2017-05-20T05:58:36.368Z,41.32
2017-05-20T06:01:05.345Z,38.67
2017-05-20T06:03:34.304Z,39.30
2017-05-20T06:06:03.252Z,38.55
2017-05-20T06:08:32.227Z,37.60
2017-05-20T06:11:01.150Z,39.65
2017-05-20T06:13:30.097Z,37.32
2017-05-20T06:15:59.059Z,37.90
2017-05-20T06:18:28.009Z,38.37
2017-05-20T06:20:57.380Z,36.53
2017-05-20T06:23:26.346Z,35.32
2017-05-20T06:25:55.269Z,34.82
2017-05-20T06:28:24.193Z,36.20
2017-05-20T06:30:53.148Z,33.48
2017-05-20T06:33:22.093Z,34.28
2017-05-20T06:35:51.035Z,34.53
2017-05-20T06:38:20.012Z,34.93
2017-05-20T06:40:48.961Z,34.63
2017-05-20T06:45:47.053Z,31.90
2017-05-20T07:00:38.417Z,32.56
2017-05-20T07:27:52.277Z,31.30
2017-05-20T07:30:21.276Z,27.47
2017-05-20T07:32:50.231Z,28.65
2017-05-20T07:35:19.159Z,26.18
2017-05-20T07:37:48.138Z,30.68
2017-05-20T07:40:17.107Z,26.53
2017-05-20T07:50:11.466Z,31.00
2017-05-20T07:52:41.415Z,27.65
2017-05-20T07:55:10.338Z,27.88
2017-05-20T07:57:39.281Z,27.12
2017-05-20T08:00:08.237Z,24.43
2017-05-20T08:02:37.178Z,24.00
2017-05-20T08:05:06.125Z,28.98
2017-05-20T08:07:35.102Z,25.45
2017-05-20T08:10:04.031Z,23.68
2017-05-20T08:12:32.985Z,26.02
2017-05-20T08:15:01.938Z,27.58
2017-05-20T08:17:30.880Z,26.15
2017-05-20T08:39:47.969Z,22.70
2017-05-20T08:49:42.331Z,21.80
2017-05-20T10:23:46.148Z,15.80
2017-05-20T10:31:12.090Z,15.50
2017-05-20T10:33:41.034Z,16.73
2017-05-20T10:53:29.471Z,12.90
2017-05-20T10:55:58.399Z,12.34
2017-05-20T10:58:27.377Z,12.88
2017-05-20T11:00:56.311Z,11.56
2017-05-20T11:03:25.253Z,11.82
2017-05-20T11:05:55.206Z,10.82
2017-05-20T11:08:24.151Z,11.90
2017-05-20T11:10:53.074Z,11.08
2017-05-20T11:13:22.053Z,11.36
2017-05-20T11:15:50.988Z,10.76
2017-05-20T11:18:19.919Z,10.30
2017-05-20T11:20:49.407Z,10.04
2017-05-20T11:23:18.394Z,10.96
2017-05-20T11:25:47.328Z,10.38
2017-05-20T11:28:16.318Z,11.40
2017-05-20T11:30:45.270Z,13.14
2017-05-20T11:33:14.209Z,11.04
2017-05-20T11:35:43.192Z,11.34
2017-05-20T11:38:12.129Z,10.12
2017-05-20T11:40:41.054Z,9.50
2017-05-20T11:43:10.425Z,8.62
2017-05-20T11:45:39.356Z,8.62
2017-05-20T11:48:08.289Z,9.08
2017-05-20T11:50:37.255Z,9.07
2017-05-20T11:53:06.205Z,8.30
2017-05-20T11:55:35.127Z,8.40
2017-05-20T11:58:04.082Z,6.98
2017-05-20T12:00:33.737Z,7.18
2017-05-20T12:03:03.256Z,7.22
2017-05-20T12:05:32.254Z,7.67
2017-05-20T12:08:01.169Z,7.93
2017-05-20T12:10:30.110Z,7.85
2017-05-20T12:12:59.080Z,9.07
2017-05-20T12:15:28.007Z,8.42
2017-05-20T12:17:56.929Z,8.88
2017-05-20T12:20:25.876Z,8.92
2017-05-20T12:22:54.806Z,10.22
2017-05-20T12:25:23.749Z,9.05
2017-05-20T12:27:52.694Z,8.75
2017-05-20T12:30:21.632Z,9.13
2017-05-20T12:32:50.569Z,8.70
2017-05-20T12:35:19.537Z,9.62
2017-05-20T12:37:48.472Z,9.05
2017-05-20T12:40:17.407Z,9.60
2017-05-20T12:42:46.358Z,9.18
2017-05-20T12:45:15.282Z,7.38
2017-05-20T12:47:44.237Z,8.02
2017-05-20T12:50:13.205Z,6.43
2017-05-20T12:52:42.127Z,7.98
2017-05-20T12:55:11.047Z,7.17
2017-05-20T12:57:40.008Z,9.00
2017-05-20T13:00:08.957Z,9.68
2017-05-20T13:02:37.882Z,8.47
2017-05-20T13:05:06.839Z,7.15
2017-05-20T13:07:35.758Z,9.38
2017-05-20T13:10:04.698Z,9.67
2017-05-20T13:12:33.669Z,8.22
2017-05-20T13:15:02.616Z,9.30
2017-05-20T13:17:31.559Z,8.80
2017-05-20T13:20:00.518Z,8.13
2017-05-20T13:22:29.463Z,8.27
2017-05-20T13:24:58.390Z,7.88
2017-05-20T13:27:27.371Z,10.17
2017-05-20T13:29:56.294Z,8.57
2017-05-20T13:32:25.218Z,9.23
2017-05-20T13:34:54.163Z,8.93
2017-05-20T13:37:23.113Z,7.80
2017-05-20T13:39:52.032Z,8.38
2017-05-20T13:42:20.982Z,7.40
2017-05-20T13:44:50.009Z,7.02
2017-05-20T13:47:18.933Z,5.85
2017-05-20T13:49:47.995Z,6.27
2017-05-20T13:52:16.913Z,7.25
2017-05-20T13:54:45.852Z,5.42
2017-05-20T13:57:14.821Z,5.62
2017-05-20T13:59:43.746Z,5.57
2017-05-20T14:02:12.688Z,6.32
2017-05-20T14:04:41.634Z,5.90
2017-05-20T14:07:10.576Z,5.43
2017-05-20T14:09:39.491Z,5.12
2017-05-20T14:12:08.467Z,5.92
2017-05-20T14:14:37.400Z,6.15
2017-05-20T14:17:06.341Z,6.10
2017-05-20T14:19:35.333Z,5.97
2017-05-20T14:22:04.290Z,5.40
2017-05-20T14:24:33.210Z,4.78
2017-05-20T14:27:02.181Z,4.27
2017-05-20T14:29:31.130Z,4.48
2017-05-20T14:32:00.064Z,4.13
2017-05-20T14:34:29.028Z,4.20
2017-05-20T14:36:57.975Z,4.67
2017-05-20T14:39:26.899Z,4.22
2017-05-20T14:41:55.874Z,4.17
2017-05-20T14:44:24.812Z,4.97
2017-05-20T14:46:53.744Z,4.58
2017-05-20T14:49:22.700Z,7.77
2017-05-20T14:51:51.632Z,5.73
2017-05-20T14:54:20.574Z,5.27
2017-05-20T14:56:49.531Z,6.17
2017-05-20T14:59:18.477Z,7.02
2017-05-20T15:01:47.438Z,5.05
2017-05-20T15:04:16.417Z,5.57
2017-05-20T15:06:45.370Z,4.72
2017-05-20T15:09:14.320Z,4.77
2017-05-20T15:11:43.269Z,4.92
2017-05-20T15:14:12.199Z,8.28
2017-05-20T15:16:41.123Z,5.47
2017-05-20T15:19:10.090Z,5.18
2017-05-20T15:21:39.037Z,5.98
2017-05-20T15:24:07.966Z,5.18
2017-05-20T15:26:36.943Z,6.22
2017-05-20T15:29:05.859Z,5.22
2017-05-20T15:31:34.781Z,6.52
2017-05-20T15:34:04.886Z,6.57
2017-05-20T15:36:33.823Z,5.60
2017-05-20T15:39:02.751Z,5.65
2017-05-20T15:41:31.717Z,6.48
2017-05-20T15:44:00.657Z,5.18
2017-05-20T15:46:29.575Z,6.15
2017-05-20T15:48:58.552Z,6.20
2017-05-20T15:51:27.486Z,7.93
2017-05-20T15:53:56.425Z,5.33
2017-05-20T15:56:25.395Z,7.52
2017-05-20T15:58:54.318Z,7.60
2017-05-20T16:01:23.272Z,10.63
2017-05-20T16:03:52.219Z,6.47
2017-05-20T16:06:21.144Z,7.93
2017-05-20T16:08:50.072Z,14.50
2017-05-20T16:11:19.039Z,5.67
2017-05-20T16:13:47.990Z,6.00
2017-05-20T16:16:16.929Z,7.48
2017-05-20T16:18:45.900Z,6.58
2017-05-20T16:21:14.826Z,6.60
2017-05-20T16:23:43.768Z,5.62
2017-05-20T16:26:12.718Z,6.78
2017-05-20T16:28:41.639Z,5.65
2017-05-20T16:31:10.579Z,5.15
2017-05-20T16:33:39.557Z,7.58
2017-05-20T16:36:08.483Z,7.60
2017-05-20T16:38:37.402Z,5.32
2017-05-20T16:41:06.365Z,5.50
2017-05-20T16:43:35.317Z,6.27
2017-05-20T16:46:04.261Z,6.63
2017-05-20T16:48:33.208Z,6.23
2017-05-20T16:51:02.164Z,6.27
2017-05-20T16:53:31.105Z,5.18
2017-05-20T16:56:00.060Z,5.60
2017-05-20T16:58:28.998Z,6.22
2017-05-20T17:00:57.918Z,7.08
2017-05-20T17:03:26.874Z,9.08
2017-05-20T17:05:55.793Z,6.43
2017-05-20T17:08:24.736Z,6.13
2017-05-20T17:10:53.687Z,7.63
2017-05-20T17:13:22.637Z,10.40
2017-05-20T17:15:51.563Z,9.32
2017-05-20T17:18:20.537Z,12.18
2017-05-20T17:20:49.487Z,11.05
2017-05-20T17:23:18.420Z,7.45
2017-05-20T17:25:47.390Z,8.08
2017-05-20T17:28:16.314Z,8.23
2017-05-20T17:33:23.300Z,6.73
2017-05-20T17:35:52.247Z,11.38
2017-05-20T17:38:21.171Z,6.40
2017-05-20T17:40:50.145Z,5.85
2017-05-20T17:43:19.081Z,8.27
2017-05-20T17:45:48.018Z,6.12
2017-05-20T17:48:16.975Z,6.30
2017-05-20T17:50:45.925Z,6.10
2017-05-20T17:53:14.869Z,6.38
2017-05-20T17:55:43.822Z,6.28
2017-05-20T17:58:12.742Z,6.72
2017-05-20T18:00:41.723Z,10.00
2017-05-20T18:03:10.688Z,7.33
2017-05-20T18:05:39.617Z,8.63
2017-05-20T18:08:08.543Z,8.20
2017-05-20T18:10:37.525Z,10.13
2017-05-20T18:13:06.453Z,7.22
2017-05-20T18:15:35.404Z,10.83
2017-05-20T18:18:04.361Z,11.12
2017-05-20T18:20:33.309Z,18.00
2017-05-20T18:23:02.252Z,10.95
2017-05-20T18:25:31.229Z,10.88
2017-05-20T18:28:00.158Z,14.25
2017-05-20T18:30:29.096Z,6.77
2017-05-20T18:32:58.055Z,9.98
2017-05-20T18:35:26.998Z,7.88
2017-05-20T18:37:55.939Z,10.43
2017-05-20T18:40:24.949Z,10.57
2017-05-20T18:42:53.871Z,8.25
2017-05-20T18:45:22.796Z,8.55
2017-05-20T18:47:51.744Z,9.35
2017-05-20T18:50:20.685Z,13.27
2017-05-20T18:52:49.610Z,14.02
2017-05-20T18:55:18.585Z,11.60
2017-05-20T18:57:47.526Z,13.25
2017-05-20T19:00:16.450Z,13.73
2017-05-20T19:02:45.442Z,13.50
2017-05-20T19:05:14.380Z,8.43
2017-05-20T19:07:43.329Z,10.58
2017-05-20T19:10:12.303Z,9.62
2017-05-20T19:12:41.249Z,9.80
2017-05-20T19:15:10.191Z,8.45
2017-05-20T19:17:39.151Z,9.38
2017-05-20T19:20:08.101Z,12.87
2017-05-20T19:22:37.030Z,9.80
2017-05-20T19:25:06.005Z,9.52
2017-05-20T19:27:34.953Z,11.97
2017-05-20T19:30:03.896Z,11.10
2017-05-20T19:32:32.851Z,11.43
2017-05-20T19:35:01.780Z,10.42
2017-05-20T19:37:30.725Z,12.43
2017-05-20T19:39:59.686Z,11.38
2017-05-20T19:42:28.615Z,13.18
2017-05-20T19:44:57.550Z,11.82
2017-05-20T19:47:26.501Z,12.97
2017-05-20T19:49:55.427Z,11.83
2017-05-20T19:52:24.374Z,11.80
2017-05-20T19:54:53.357Z,11.92
2017-05-20T19:57:22.306Z,11.90
2017-05-20T19:59:51.231Z,11.27
2017-05-20T20:02:20.190Z,12.10
2017-05-20T20:04:49.145Z,13.12
2017-05-20T20:07:18.088Z,14.20
2017-05-20T20:09:47.055Z,13.27
2017-05-20T20:12:15.999Z,15.00
2017-05-20T20:14:44.977Z,14.00
2017-05-20T20:17:13.925Z,12.72
2017-05-20T20:19:42.874Z,16.08
2017-05-20T20:22:11.826Z,15.07
2017-05-20T20:24:40.763Z,12.62
2017-05-20T20:27:09.741Z,14.12
2017-05-20T20:29:38.694Z,12.13
2017-05-20T20:32:07.626Z,11.77
2017-05-20T20:34:36.575Z,12.50
2017-05-20T20:37:05.503Z,11.55
2017-05-20T20:39:34.485Z,11.35
2017-05-20T20:42:03.433Z,12.03
2017-05-20T20:44:32.379Z,12.63
2017-05-20T20:47:01.345Z,15.92
2017-05-20T20:49:30.272Z,14.85
2017-05-20T20:51:59.224Z,15.55
2017-05-20T20:54:28.189Z,17.00
2017-05-20T20:56:57.120Z,20.57
2017-05-20T20:59:26.071Z,21.30
2017-05-20T21:01:55.017Z,22.72
2017-05-20T21:04:23.985Z,26.67
2017-05-20T21:06:52.915Z,24.53
2017-05-20T21:09:21.841Z,24.85
2017-05-20T21:11:50.817Z,27.40
2017-05-20T21:14:19.788Z,28.72
2017-05-20T21:16:48.761Z,26.97
2017-05-20T21:19:17.705Z,21.30
2017-05-20T21:21:46.649Z,21.77
2017-05-20T21:24:15.618Z,21.68
2017-05-20T21:26:44.565Z,20.48
2017-05-20T21:29:13.529Z,19.83
2017-05-20T21:31:42.482Z,19.40
2017-05-20T21:34:11.425Z,19.78
2017-05-20T21:36:40.378Z,20.20
2017-05-20T21:39:09.330Z,19.32
2017-05-20T21:41:38.307Z,20.42
2017-05-20T21:44:07.253Z,19.02
2017-05-20T21:46:36.197Z,20.32
2017-05-20T21:49:05.142Z,19.30
2017-05-20T21:51:34.093Z,19.08
2017-05-20T21:54:03.066Z,18.23
2017-05-20T21:56:32.013Z,18.55
2017-05-20T21:59:00.941Z,18.85
2017-05-20T22:01:29.999Z,17.23
2017-05-20T22:03:58.948Z,17.55
2017-05-20T22:06:27.910Z,18.27
2017-05-20T22:08:56.855Z,18.37
2017-05-20T22:11:25.836Z,17.45
2017-05-20T22:13:54.813Z,17.88
2017-05-20T22:16:23.760Z,17.23
2017-05-20T22:18:52.714Z,22.13
2017-05-20T22:21:21.639Z,26.15
2017-05-20T22:23:50.579Z,29.62
2017-05-20T22:26:19.552Z,31.43
2017-05-20T22:28:48.521Z,26.32
2017-05-20T22:31:17.489Z,23.52
2017-05-20T22:33:46.427Z,19.95
2017-05-20T22:36:15.387Z,17.55
2017-05-20T22:38:44.358Z,19.48
2017-05-20T22:41:13.325Z,26.72
2017-05-20T22:43:42.272Z,33.83
2017-05-20T22:46:11.260Z,23.33
2017-05-20T22:48:40.225Z,20.03
2017-05-20T22:51:09.171Z,21.02
2017-05-20T22:53:38.157Z,19.03
2017-05-20T22:56:07.124Z,20.30
2017-05-20T22:58:36.062Z,23.10
2017-05-20T23:01:05.027Z,22.70
2017-05-20T23:03:33.979Z,21.78
2017-05-20T23:06:02.925Z,20.85
2017-05-20T23:08:31.899Z,21.13
2017-05-20T23:11:00.887Z,18.88
2017-05-20T23:13:29.815Z,21.43
2017-05-20T23:15:58.769Z,19.42
2017-05-20T23:18:27.713Z,19.83
2017-05-20T23:20:56.662Z,20.83
2017-05-20T23:23:25.620Z,19.58
2017-05-20T23:25:54.554Z,19.10
2017-05-20T23:28:23.478Z,20.53
2017-05-20T23:30:52.444Z,19.43
2017-05-20T23:33:21.389Z,20.58
2017-05-20T23:35:50.315Z,24.87
2017-05-20T23:38:19.272Z,29.02
2017-05-20T23:40:48.226Z,30.32
2017-05-20T23:43:17.172Z,27.07
2017-05-20T23:45:46.178Z,24.57
2017-05-20T23:48:15.120Z,24.53
2017-05-20T23:50:44.040Z,22.80
2017-05-20T23:53:13.017Z,22.32
2017-05-20T23:55:41.966Z,19.93
2017-05-20T23:58:10.893Z,23.22
